Time;durP1;ratioP1;P1;durP2;ratioP2;P2;SDS_P1;SDS_P2;PMS_P1;PMS_P2;Temp;Humidity;BMP_temperature;BMP_pressure;BME280_temperature;BME280_humidity;BME280_pressure;Samples;Min_cycle;Max_cycle;Signal;HPM_P1;HPM_P2
2022/03/29 00:01:00;;;;;;;18.02;8.40;;;;;;;8.70;47.21;99597.81;1709506;84;26198;-70
2022/03/29 00:03:27;;;;;;;20.05;7.90;;;;;;;8.66;47.40;99601.44;1709409;84;25451;-70
2022/03/29 00:05:55;;;;;;;14.03;8.08;;;;;;;8.58;47.57;99594.37;1709631;84;27325;-70
2022/03/29 00:08:22;;;;;;;13.83;8.35;;;;;;;8.54;47.64;99594.73;1709292;84;25482;-70
2022/03/29 00:10:49;;;;;;;16.37;7.85;;;;;;;8.49;47.47;99590.05;1709383;84;25471;-70
2022/03/29 00:13:17;;;;;;;13.90;7.50;;;;;;;8.44;47.61;99589.63;1709356;84;26493;-70
2022/03/29 00:15:44;;;;;;;14.20;8.00;;;;;;;8.36;47.82;99592.52;1709401;84;25604;-70
2022/03/29 00:18:10;;;;;;;18.57;8.13;;;;;;;8.31;47.98;99584.56;1709376;84;27056;-70
2022/03/29 00:20:37;;;;;;;14.98;8.80;;;;;;;8.28;48.33;99577.66;1709326;84;25613;-70
2022/03/29 00:23:03;;;;;;;16.95;7.92;;;;;;;8.24;48.05;99585.57;1709452;84;25608;-70
2022/03/29 00:25:30;;;;;;;14.15;8.78;;;;;;;8.22;48.08;99581.02;1681021;84;26283;-70
2022/03/29 00:27:56;;;;;;;17.42;7.78;;;;;;;8.18;48.60;99575.47;1709536;84;25663;-70
2022/03/29 00:30:22;;;;;;;17.50;8.55;;;;;;;8.15;48.41;99572.59;1709614;84;27888;-71
2022/03/29 00:32:48;;;;;;;16.80;7.50;;;;;;;8.12;48.39;99568.64;1709453;84;25452;-71
2022/03/29 00:35:15;;;;;;;16.60;8.70;;;;;;;8.11;48.55;99567.04;1709607;84;25595;-71
2022/03/29 00:37:43;;;;;;;13.85;8.63;;;;;;;8.08;48.75;99569.00;1709559;84;25628;-71
2022/03/29 00:40:12;;;;;;;17.87;9.03;;;;;;;8.04;48.76;99562.09;1709630;84;25478;-71
2022/03/29 00:42:41;;;;;;;16.73;8.60;;;;;;;8.02;48.86;99551.41;1709604;84;27902;-71
2022/03/29 00:45:08;;;;;;;14.95;8.10;;;;;;;8.00;48.87;99543.63;1709449;84;25484;-71
2022/03/29 00:47:35;;;;;;;14.60;9.33;;;;;;;7.99;48.68;99548.77;1709513;84;25579;-70
2022/03/29 00:50:03;;;;;;;16.48;9.65;;;;;;;7.97;48.93;99546.94;1709453;84;25625;-70
2022/03/29 00:52:30;;;;;;;16.60;10.08;;;;;;;7.93;49.13;99539.22;1709466;84;25540;-70
2022/03/29 00:54:57;;;;;;;18.10;9.90;;;;;;;7.89;49.22;99536.91;1709518;84;27965;-70
2022/03/29 00:57:25;;;;;;;16.12;9.20;;;;;;;7.86;49.32;99543.69;1709399;84;25403;-70
2022/03/29 00:59:52;;;;;;;20.72;10.82;;;;;;;7.83;49.83;99540.30;1709439;82;25872;-70
2022/03/29 01:02:18;;;;;;;19.75;10.63;;;;;;;7.81;49.84;99532.27;1709427;84;25615;-70
2022/03/29 01:04:44;;;;;;;21.23;11.00;;;;;;;7.77;49.91;99534.78;1709507;84;25426;-70
2022/03/29 01:07:11;;;;;;;20.82;10.65;;;;;;;7.75;49.90;99537.00;1709470;84;27505;-70
2022/03/29 01:09:38;;;;;;;17.95;11.10;;;;;;;7.76;49.99;99539.13;1709404;84;25621;-70
2022/03/29 01:12:05;;;;;;;20.00;11.10;;;;;;;7.75;49.87;99532.17;1709457;84;25575;-70
2022/03/29 01:14:32;;;;;;;20.35;10.63;;;;;;;7.75;50.42;99537.00;1709445;84;25633;-70
2022/03/29 01:19:46;;;;;;;20.43;10.72;;;;;;;7.74;50.37;99530.58;1709466;84;27340;-71
2022/03/29 01:22:13;;;;;;;22.42;10.45;;;;;;;7.73;50.41;99528.45;1709329;84;25612;-71
2022/03/29 01:24:46;;;;;;;20.48;10.72;;;;;;;7.71;50.26;99526.59;1709470;84;25727;-71
2022/03/29 01:27:13;;;;;;;16.70;10.10;;;;;;;7.71;50.65;99534.66;1709516;84;25639;-71
2022/03/29 01:29:43;;;;;;;19.20;10.30;;;;;;;7.68;50.92;99527.23;1709478;84;25458;-71
2022/03/29 01:32:11;;;;;;;18.32;10.90;;;;;;;7.64;51.16;99532.44;1709567;84;29049;-71
2022/03/29 01:34:42;;;;;;;19.42;10.35;;;;;;;7.64;51.21;99541.04;1709348;84;25481;-71
2022/03/29 01:37:09;;;;;;;23.20;10.70;;;;;;;7.62;51.70;99530.58;1709430;84;25570;-70
2022/03/29 01:39:37;;;;;;;19.35;11.05;;;;;;;7.62;51.94;99530.58;1709404;84;25472;-70
2022/03/29 01:42:05;;;;;;;20.35;11.55;;;;;;;7.61;52.09;99516.89;1709471;84;25648;-70
2022/03/29 01:44:32;;;;;;;20.77;11.83;;;;;;;7.59;52.26;99520.42;1709428;84;27353;-70
2022/03/29 01:46:58;;;;;;;21.55;11.85;;;;;;;7.57;52.37;99523.19;1704013;84;25564;-70
2022/03/29 01:49:25;;;;;;;20.08;11.65;;;;;;;7.56;52.36;99522.94;1701865;84;25426;-70
2022/03/29 01:51:51;;;;;;;22.82;12.13;;;;;;;7.57;52.48;99521.28;1701772;84;25600;-70
2022/03/29 01:54:18;;;;;;;23.57;12.35;;;;;;;7.56;52.55;99522.41;1677670;84;25492;-71
2022/03/29 01:56:44;;;;;;;21.52;12.00;;;;;;;7.57;52.52;99527.23;1701836;84;27400;-70
2022/03/29 01:59:14;;;;;;;21.20;11.40;;;;;;;7.56;52.53;99514.86;1701743;84;25615;-70
2022/03/29 02:01:47;;;;;;;18.45;11.08;;;;;;;7.57;52.55;99506.48;1701977;84;25474;-70
2022/03/29 02:04:15;;;;;;;21.10;11.25;;;;;;;7.54;52.87;99503.61;1701833;84;25616;-70
2022/03/29 02:06:42;;;;;;;20.57;11.00;;;;;;;7.52;52.90;99496.41;1701878;84;25460;-70
2022/03/29 02:09:10;;;;;;;23.62;11.75;;;;;;;7.50;52.96;99491.33;1701820;84;27892;-71
2022/03/29 02:11:42;;;;;;;20.60;11.53;;;;;;;7.47;53.34;99490.06;1701968;84;25638;-71
2022/03/29 02:14:09;;;;;;;16.30;10.58;;;;;;;7.46;52.79;99491.71;1701813;84;25433;-71
2022/03/29 02:16:36;;;;;;;18.67;11.03;;;;;;;7.45;53.37;99485.52;1701772;84;25688;-70
2022/03/29 02:19:02;;;;;;;19.82;11.20;;;;;;;7.41;53.14;99485.90;1701841;84;25557;-71
2022/03/29 02:21:28;;;;;;;19.00;11.43;;;;;;;7.41;53.66;99498.56;1701810;84;27439;-70
2022/03/29 02:23:55;;;;;;;20.57;10.55;;;;;;;7.37;53.35;99488.16;1701745;84;33020;-70
2022/03/29 02:26:21;;;;;;;21.12;11.85;;;;;;;7.35;53.83;99476.91;1701845;84;25423;-70
2022/03/29 02:28:47;;;;;;;19.73;11.95;;;;;;;7.32;53.55;99483.72;1701802;84;26219;-70
2022/03/29 02:31:13;;;;;;;18.05;11.28;;;;;;;7.32;53.82;99484.25;1701830;84;25656;-70
2022/03/29 02:33:40;;;;;;;18.67;11.53;;;;;;;7.32;53.66;99485.06;1701805;84;27322;-71
2022/03/29 02:36:07;;;;;;;20.12;11.97;;;;;;;7.31;54.07;99490.19;1701705;84;25630;-70
2022/03/29 02:38:34;;;;;;;20.57;11.68;;;;;;;7.29;54.33;99483.77;1701805;84;25636;-70
2022/03/29 02:41:01;;;;;;;19.98;11.55;;;;;;;7.25;54.18;99476.08;1701759;84;26283;-71
2022/03/29 02:43:27;;;;;;;19.75;12.10;;;;;;;7.23;54.52;99480.16;1701842;84;25575;-70
2022/03/29 02:45:53;;;;;;;19.15;11.28;;;;;;;7.22;54.73;99478.56;1701846;83;27343;-71
2022/03/29 02:48:20;;;;;;;21.77;12.10;;;;;;;7.20;54.81;99476.73;1702757;83;25653;-71
2022/03/29 02:50:47;;;;;;;20.27;12.13;;;;;;;7.18;54.91;99477.59;1702876;84;25609;-70
2022/03/29 02:53:15;;;;;;;23.70;12.25;;;;;;;7.14;55.13;99470.69;1702742;84;25767;-71
2022/03/29 02:55:42;;;;;;;20.00;11.85;;;;;;;7.14;55.25;99477.97;1702845;84;25588;-71
2022/03/29 02:58:08;;;;;;;23.80;13.20;;;;;;;7.12;55.42;99472.89;1702804;84;27321;-71
2022/03/29 03:00:35;;;;;;;20.90;12.70;;;;;;;7.11;55.01;99480.14;1702717;84;25611;-71
2022/03/29 03:03:03;;;;;;;24.25;12.10;;;;;;;7.14;55.41;99473.38;1702957;84;25458;-70
2022/03/29 03:05:30;;;;;;;26.68;13.15;;;;;;;7.14;55.32;99483.34;1702782;84;25621;-70
2022/03/29 03:07:56;;;;;;;20.88;12.75;;;;;;;7.15;55.64;99479.54;1702812;84;25650;-70
2022/03/29 03:10:23;;;;;;;21.37;11.95;;;;;;;7.14;55.49;99476.06;1675937;84;27232;-71
2022/03/29 03:12:51;;;;;;;23.18;12.18;;;;;;;7.16;55.72;99480.58;1702702;83;25455;-71
2022/03/29 03:15:25;;;;;;;20.27;11.68;;;;;;;7.14;56.18;99473.94;1702891;84;25487;-70
2022/03/29 03:17:54;;;;;;;18.27;11.57;;;;;;;7.09;55.91;99467.56;1702788;84;26198;-70
2022/03/29 03:20:23;;;;;;;19.20;12.07;;;;;;;7.08;56.04;99473.24;1704933;84;25644;-70
2022/03/29 03:22:51;;;;;;;20.17;12.23;;;;;;;7.05;56.40;99470.62;1704710;84;27435;-70
2022/03/29 03:25:19;;;;;;;22.35;13.30;;;;;;;7.00;56.50;99466.72;1702781;84;25661;-71
2022/03/29 03:27:45;;;;;;;20.80;12.50;;;;;;;6.95;56.94;99468.70;1702801;84;25541;-71
2022/03/29 03:30:16;;;;;;;23.07;12.85;;;;;;;6.92;56.87;99474.95;1702704;84;27844;-71
2022/03/29 03:32:43;;;;;;;20.60;12.95;;;;;;;6.88;57.39;99472.63;1702808;84;25483;-70
2022/03/29 03:35:12;;;;;;;20.50;12.80;;;;;;;6.87;57.00;99480.44;1702804;83;27870;-71
2022/03/29 03:37:40;;;;;;;22.77;12.13;;;;;;;6.87;57.27;99483.13;1702822;84;25623;-71
2022/03/29 03:40:10;;;;;;;22.98;12.82;;;;;;;6.88;57.46;99485.28;1702764;84;25604;-70
2022/03/29 03:42:37;;;;;;;22.62;12.60;;;;;;;6.87;57.56;99478.31;1702750;84;26155;-70
2022/03/29 03:45:06;;;;;;;17.70;11.35;;;;;;;6.86;57.30;99478.87;1702887;83;25647;-71
2022/03/29 03:47:33;;;;;;;21.27;13.18;;;;;;;6.87;57.45;99479.09;1702291;84;27337;-70
2022/03/29 03:50:00;;;;;;;21.10;12.20;;;;;;;6.87;57.42;99485.03;1701668;84;25728;-70
2022/03/29 03:52:27;;;;;;;23.32;12.95;;;;;;;6.86;57.82;99488.28;1701721;84;25459;-70
2022/03/29 03:54:54;;;;;;;21.85;12.13;;;;;;;6.84;57.52;99488.31;1701716;84;25726;-70
2022/03/29 03:57:21;;;;;;;20.57;12.65;;;;;;;6.83;57.55;99498.28;1701812;84;25418;-70
2022/03/29 03:59:48;;;;;;;20.75;12.53;;;;;;;6.82;57.51;99500.72;1701800;84;27469;-70
2022/03/29 04:02:15;;;;;;;25.20;13.75;;;;;;;6.81;57.78;99512.58;1701688;84;25693;-70
2022/03/29 04:04:41;;;;;;;25.32;13.50;;;;;;;6.77;57.93;99518.30;1701912;84;25476;-70
2022/03/29 04:07:07;;;;;;;22.30;13.08;;;;;;;6.72;57.80;99513.84;1701902;84;25680;-70
2022/03/29 04:09:35;;;;;;;25.00;13.83;;;;;;;6.69;57.73;99519.83;1701935;84;25557;-71
2022/03/29 04:12:04;;;;;;;25.30;14.35;;;;;;;6.64;57.87;99516.43;1701929;84;26905;-71
2022/03/29 04:14:30;;;;;;;21.37;12.85;;;;;;;6.59;58.04;99509.30;1701926;84;25452;-72
2022/03/29 04:16:57;;;;;;;22.20;13.10;;;;;;;6.54;58.37;99504.81;1701942;84;25568;-71
2022/03/29 04:19:23;;;;;;;23.83;14.03;;;;;;;6.49;58.33;99506.27;1701879;84;26330;-71
2022/03/29 04:21:49;;;;;;;22.58;14.15;;;;;;;6.45;58.71;99492.38;1701951;84;25452;-71
2022/03/29 04:24:16;;;;;;;29.32;14.80;;;;;;;6.41;58.77;99492.74;1701896;84;27342;-71
2022/03/29 04:26:42;;;;;;;23.57;14.23;;;;;;;6.37;58.89;99499.27;1701813;84;25654;-71
2022/03/29 04:29:09;;;;;;;27.10;14.70;;;;;;;6.36;59.35;99494.98;1701924;84;25414;-72
2022/03/29 04:31:35;;;;;;;22.30;14.38;;;;;;;6.32;59.60;99490.76;1701848;84;26299;-71
2022/03/29 04:34:02;;;;;;;28.38;15.23;;;;;;;6.30;60.11;99493.48;1701881;84;25623;-71
2022/03/29 04:36:29;;;;;;;22.95;14.85;;;;;;;6.27;60.15;99484.15;1701920;84;27913;-71
2022/03/29 04:38:57;;;;;;;26.35;15.63;;;;;;;6.26;60.19;99474.48;1701816;84;25655;-71
2022/03/29 04:41:25;;;;;;;26.55;15.15;;;;;;;6.25;60.89;99484.19;1702017;84;25419;-71
2022/03/29 04:43:51;;;;;;;24.95;15.70;;;;;;;6.24;61.21;99494.70;1701862;84;25784;-71
2022/03/29 04:46:17;;;;;;;28.85;16.00;;;;;;;6.26;61.27;99496.53;1701881;83;25568;-72
2022/03/29 04:48:44;;;;;;;29.95;18.70;;;;;;;6.26;61.41;99493.84;1702899;84;27326;-71
2022/03/29 04:51:11;;;;;;;35.50;18.30;;;;;;;6.25;61.64;99503.80;1708245;82;25792;-72
2022/03/29 04:53:38;;;;;;;31.02;19.32;;;;;;;6.28;61.93;99494.33;1718258;82;25661;-71
2022/03/29 04:56:05;;;;;;;33.53;20.08;;;;;;;6.30;61.92;99486.77;1705124;84;25750;-71
2022/03/29 04:58:32;;;;;;;32.08;19.27;;;;;;;6.33;61.84;99488.86;1705191;84;25765;-71
2022/03/29 05:00:58;;;;;;;29.80;17.73;;;;;;;6.34;62.26;99489.13;1705389;84;27426;-71
2022/03/29 05:03:26;;;;;;;26.73;16.77;;;;;;;6.38;62.43;99490.09;1705329;84;25751;-71
2022/03/29 05:05:52;;;;;;;28.73;16.70;;;;;;;6.43;62.39;99494.58;1679180;84;25451;-71
2022/03/29 05:08:18;;;;;;;28.95;16.93;;;;;;;6.46;62.55;99506.08;1705392;84;25645;-70
2022/03/29 05:10:44;;;;;;;26.60;16.12;;;;;;;6.49;62.37;99500.89;1705421;84;25433;-70
2022/03/29 05:13:12;;;;;;;25.57;17.45;;;;;;;6.51;62.46;99505.97;1705386;84;27324;-70
2022/03/29 05:15:39;;;;;;;24.40;16.67;;;;;;;6.52;62.44;99511.04;1705335;84;25485;-71
2022/03/29 05:18:06;;;;;;;22.75;16.73;;;;;;;6.54;62.52;99510.19;1705448;84;25646;-71
2022/03/29 05:20:32;;;;;;;28.30;16.85;;;;;;;6.57;62.62;99512.02;1705394;84;25629;-71
2022/03/29 05:23:01;;;;;;;30.12;16.12;;;;;;;6.60;62.61;99505.49;1705405;84;25556;-70
2022/03/29 05:25:27;;;;;;;24.20;16.02;;;;;;;6.64;62.64;99505.16;1705427;84;27353;-71
2022/03/29 05:27:57;;;;;;;29.30;17.10;;;;;;;6.72;62.69;99503.10;1705341;84;25466;-70
2022/03/29 05:30:24;;;;;;;26.17;16.12;;;;;;;6.75;62.89;99504.93;1705708;82;25461;-71
2022/03/29 05:32:51;;;;;;;31.25;16.48;;;;;;;6.81;62.82;99510.42;1694086;82;25639;-69
2022/03/29 05:35:18;;;;;;;30.75;17.02;;;;;;;6.84;62.82;99507.92;1700601;84;25643;-70
2022/03/29 05:37:44;;;;;;;27.22;17.70;;;;;;;6.89;62.65;99510.50;1705429;84;27320;-70
2022/03/29 05:40:12;;;;;;;29.95;18.87;;;;;;;6.94;62.65;99510.94;1705330;84;25434;-70
2022/03/29 05:42:44;;;;;;;27.35;16.15;;;;;;;6.98;62.70;99511.94;1697852;82;25600;-71
2022/03/29 05:45:13;;;;;;;31.40;18.57;;;;;;;7.03;62.53;99506.45;1705383;84;25644;-72
2022/03/29 05:50:27;;;;;;;31.15;18.77;;;;;;;7.04;62.33;99510.70;1683147;85;27356;-70
2022/03/29 05:52:56;;;;;;;34.07;17.37;;;;;;;7.05;62.37;99512.31;1683227;85;25654;-72
2022/03/29 05:55:24;;;;;;;28.98;19.17;;;;;;;7.08;62.27;99514.92;1683101;85;25641;-71
2022/03/29 05:57:52;;;;;;;30.12;20.50;;;;;;;7.11;62.45;99511.63;1683181;85;25729;-70
2022/03/29 06:00:27;;;;;;;36.40;21.35;;;;;;;7.06;62.27;99503.13;1683056;85;25637;-70
2022/03/29 06:02:51;;;;;;;36.33;21.70;;;;;;;7.08;62.31;99502.30;1682447;84;27940;-71
2022/03/29 06:05:17;;;;;;;33.67;23.55;;;;;;;7.06;62.44;99509.84;1652147;86;25630;-70
2022/03/29 06:07:44;;;;;;;41.33;24.10;;;;;;;7.01;62.33;99507.84;1681685;85;25741;-72
2022/03/29 06:10:11;;;;;;;35.10;23.57;;;;;;;6.95;62.60;99515.23;1683027;85;25661;-71
2022/03/29 06:12:38;;;;;;;34.60;22.77;;;;;;;6.91;62.65;99516.39;1683038;85;25637;-71
2022/03/29 06:15:08;;;;;;;35.90;21.68;;;;;;;6.91;62.97;99515.57;1656209;85;27512;-71
2022/03/29 06:17:35;;;;;;;35.75;23.05;;;;;;;6.89;62.92;99520.47;1682936;85;25769;-69
2022/03/29 06:20:06;;;;;;;36.55;23.98;;;;;;;6.90;63.06;99528.23;1683062;85;25660;-70
2022/03/29 06:22:40;;;;;;;39.73;23.47;;;;;;;6.87;62.87;99526.14;1651973;86;25819;-70
2022/03/29 06:25:08;;;;;;;38.35;24.12;;;;;;;6.86;62.95;99534.50;1652181;86;25663;-70
2022/03/29 06:27:35;;;;;;;41.15;25.17;;;;;;;6.85;63.02;99536.41;1652101;86;28149;-70
2022/03/29 06:30:05;;;;;;;41.55;24.72;;;;;;;6.81;62.86;99540.81;1652110;86;25686;-69
2022/03/29 06:32:32;;;;;;;38.48;24.70;;;;;;;6.78;62.79;99537.38;1646194;86;25956;-69
2022/03/29 06:34:58;;;;;;;38.92;25.68;;;;;;;6.73;63.09;99532.89;1646835;85;25788;-70
2022/03/29 06:37:25;;;;;;;39.00;24.30;;;;;;;6.72;62.99;99539.39;1657725;85;25406;-69
2022/03/29 06:39:51;;;;;;;38.08;25.37;;;;;;;6.72;62.99;99536.70;1675093;85;27365;-69
2022/03/29 06:42:18;;;;;;;43.20;24.60;;;;;;;6.73;63.11;99541.52;1674966;85;25760;-69
2022/03/29 06:44:46;;;;;;;38.95;23.00;;;;;;;6.76;63.19;99538.76;1674867;85;25831;-68
2022/03/29 06:47:13;;;;;;;40.33;23.15;;;;;;;6.74;63.14;99544.43;1678604;82;25644;-68
2022/03/29 06:49:41;;;;;;;37.80;22.77;;;;;;;6.74;63.23;99547.12;1709755;83;25664;-68
2022/03/29 06:52:08;;;;;;;39.25;23.92;;;;;;;6.76;63.29;99550.85;1709626;83;27342;-69
2022/03/29 06:54:34;;;;;;;38.33;23.65;;;;;;;6.78;63.30;99548.12;1732168;82;25567;-69
2022/03/29 06:57:00;;;;;;;33.45;21.87;;;;;;;6.81;63.26;99549.40;1734949;82;25501;-69
2022/03/29 06:59:27;;;;;;;38.28;22.25;;;;;;;6.83;63.36;99552.61;1734898;82;25623;-69
2022/03/29 07:01:53;;;;;;;36.42;21.70;;;;;;;6.86;63.31;99542.05;1734951;82;25572;-69
2022/03/29 07:04:19;;;;;;;36.68;22.05;;;;;;;6.88;63.27;99547.12;1734865;82;27315;-69
2022/03/29 07:06:46;;;;;;;35.68;21.40;;;;;;;6.88;63.29;99549.25;1734830;82;25636;-68
2022/03/29 07:11:56;;;;;;;35.43;20.82;;;;;;;6.94;63.26;99545.11;1734849;82;25623;-68
2022/03/29 07:14:23;;;;;;;37.83;21.30;;;;;;;6.94;63.30;99542.42;1734890;82;32469;-68
2022/03/29 07:16:50;;;;;;;38.83;22.62;;;;;;;6.98;63.19;99546.89;1734811;82;29664;-68
2022/03/29 07:19:18;;;;;;;38.48;21.48;;;;;;;7.04;63.39;99542.97;1734810;82;25445;-68
2022/03/29 07:21:46;;;;;;;41.48;23.50;;;;;;;7.04;63.32;99542.19;1734845;82;25564;-68
2022/03/29 07:24:12;;;;;;;36.83;23.02;;;;;;;7.04;63.19;99548.35;1734846;82;25628;-68
2022/03/29 07:26:40;;;;;;;35.88;24.45;;;;;;;7.08;63.11;99549.36;1713953;82;25501;-69
2022/03/29 07:29:07;;;;;;;33.38;22.32;;;;;;;7.13;63.04;99550.33;1734895;82;27333;-70
2022/03/29 07:31:34;;;;;;;35.48;21.60;;;;;;;7.20;63.20;99535.91;1734813;82;25770;-68
2022/03/29 07:34:01;;;;;;;36.17;21.70;;;;;;;7.31;63.24;99536.48;1734860;82;25690;-69
2022/03/29 07:36:27;;;;;;;33.85;22.13;;;;;;;7.43;63.09;99543.45;1734881;82;26174;-69
2022/03/29 07:38:53;;;;;;;35.88;21.35;;;;;;;7.54;63.14;99536.70;1734627;82;25780;-68
2022/03/29 07:41:19;;;;;;;40.05;20.50;;;;;;;7.57;62.60;99533.95;1734670;82;27351;-69
2022/03/29 07:43:46;;;;;;;35.00;21.35;;;;;;;7.60;62.55;99544.11;1734609;82;25650;-69
2022/03/29 07:46:13;;;;;;;31.80;19.87;;;;;;;7.61;62.25;99540.30;1734758;82;25474;-68
2022/03/29 07:48:39;;;;;;;39.45;21.85;;;;;;;7.58;62.26;99537.69;1733863;81;25649;-69
2022/03/29 07:51:06;;;;;;;37.75;22.90;;;;;;;7.60;62.26;99532.00;1733259;82;25217;-68
2022/03/29 07:53:33;;;;;;;42.90;22.98;;;;;;;7.66;62.20;99528.87;1732680;82;27295;-68
2022/03/29 07:55:59;;;;;;;38.50;24.67;;;;;;;7.75;62.40;99531.61;1732754;82;25482;-68
2022/03/29 07:58:26;;;;;;;36.60;23.05;;;;;;;7.82;62.17;99531.17;1732776;82;25587;-68
2022/03/29 08:00:53;;;;;;;38.92;23.47;;;;;;;7.80;61.84;99535.52;1732785;82;26140;-68
2022/03/29 08:03:21;;;;;;;41.77;25.77;;;;;;;7.79;61.93;99535.27;1732860;82;26462;-68
2022/03/29 08:05:49;;;;;;;39.38;24.90;;;;;;;7.82;61.85;99537.91;1732813;82;27309;-68
2022/03/29 08:08:17;;;;;;;40.50;24.57;;;;;;;7.80;61.81;99532.83;1732723;82;25630;-68
2022/03/29 08:10:46;;;;;;;44.45;25.68;;;;;;;7.79;61.75;99531.79;1732766;82;25393;-69
2022/03/29 08:13:14;;;;;;;42.97;28.17;;;;;;;7.76;61.77;99530.49;1733045;82;26390;-68
2022/03/29 08:15:44;;;;;;;43.35;26.10;;;;;;;7.80;61.86;99528.79;1732814;82;25575;-68
2022/03/29 08:18:11;;;;;;;46.65;25.72;;;;;;;7.91;61.94;99536.60;1732376;82;27384;-68
2022/03/29 08:20:40;;;;;;;45.50;26.65;;;;;;;7.89;61.95;99529.39;1732612;82;25629;-66
2022/03/29 08:23:08;;;;;;;38.67;24.37;;;;;;;7.91;62.00;99533.35;1732824;82;25562;-68
2022/03/29 08:25:38;;;;;;;36.98;25.05;;;;;;;7.95;61.81;99536.22;1732817;82;25658;-69
2022/03/29 08:28:07;;;;;;;45.95;26.82;;;;;;;7.97;61.68;99536.16;1732822;82;25692;-68
2022/03/29 08:30:34;;;;;;;44.73;26.40;;;;;;;8.11;61.65;99534.72;1732779;82;27490;-68
2022/03/29 08:33:03;;;;;;;40.88;23.38;;;;;;;8.26;61.87;99533.52;1732656;82;25387;-70
2022/03/29 08:35:32;;;;;;;46.27;22.57;;;;;;;8.37;61.39;99538.84;1733168;82;25431;-69
2022/03/29 08:37:59;;;;;;;36.98;23.75;;;;;;;8.50;61.21;99531.78;1732717;82;26302;-70
2022/03/29 08:40:28;;;;;;;37.08;23.77;;;;;;;8.56;60.70;99531.89;1733046;82;25694;-69
2022/03/29 08:42:58;;;;;;;40.03;23.12;;;;;;;8.63;60.37;99532.75;1732909;82;27206;-68
2022/03/29 08:45:35;;;;;;;38.55;23.07;;;;;;;8.65;60.04;99527.05;1732846;82;25735;-68
2022/03/29 08:48:01;;;;;;;47.00;24.15;;;;;;;8.63;59.89;99530.05;1732669;82;25608;-69
2022/03/29 08:50:36;;;;;;;39.75;23.95;;;;;;;8.59;59.79;99529.11;1732973;82;26272;-68
2022/03/29 08:53:04;;;;;;;41.50;23.62;;;;;;;8.59;59.93;99529.11;1732875;82;25560;-69
2022/03/29 08:55:32;;;;;;;35.92;22.15;;;;;;;8.61;60.14;99532.28;1732853;82;27365;-67
2022/03/29 08:57:59;;;;;;;37.78;21.87;;;;;;;8.69;59.96;99531.51;1732878;82;26244;-67
2022/03/29 09:00:25;;;;;;;38.60;21.33;;;;;;;8.73;59.90;99527.63;1732919;82;25533;-69
2022/03/29 09:02:52;;;;;;;33.33;20.92;;;;;;;8.79;59.74;99526.38;1732843;82;25622;-68
2022/03/29 09:05:30;;;;;;;36.08;22.10;;;;;;;8.81;59.49;99526.06;1732938;82;25427;-67
2022/03/29 09:08:03;;;;;;;39.45;21.73;;;;;;;8.84;59.48;99518.70;1733044;82;28177;-67
2022/03/29 09:10:49;;;;;;;37.33;22.70;;;;;;;8.92;59.52;99525.98;1732774;82;25461;-68
2022/03/29 09:13:31;;;;;;;35.50;23.02;;;;;;;8.92;59.09;99520.58;1733117;82;25737;-69
2022/03/29 09:16:01;;;;;;;40.30;23.45;;;;;;;8.89;59.03;99517.19;1733185;82;25735;-67
2022/03/29 09:18:30;;;;;;;44.67;25.08;;;;;;;9.04;59.88;99505.93;1733216;82;25388;-67
2022/03/29 09:21:12;;;;;;;40.88;25.02;;;;;;;9.25;59.17;99514.73;1733353;82;28951;-69
2022/03/29 09:23:42;;;;;;;44.50;27.77;;;;;;;9.35;58.88;99517.09;1733096;82;25414;-68
2022/03/29 09:26:25;;;;;;;46.42;27.05;;;;;;;9.43;58.54;99508.20;1728684;82;25619;-68
2022/03/29 09:28:52;;;;;;;46.58;26.70;;;;;;;9.64;58.96;99516.98;1733101;82;25560;-70
2022/03/29 09:31:22;;;;;;;50.35;30.40;;;;;;;9.92;58.62;99510.60;1733261;82;25610;-68
2022/03/29 09:33:51;;;;;;;50.88;32.08;;;;;;;10.01;57.68;99516.78;1733041;82;27362;-69
2022/03/29 09:36:21;;;;;;;49.73;32.25;;;;;;;9.95;56.98;99509.17;1733201;82;25559;-69
2022/03/29 09:38:52;;;;;;;59.73;31.87;;;;;;;9.85;56.71;99507.61;1707123;82;25409;-68
2022/03/29 09:41:28;;;;;;;54.83;32.28;;;;;;;9.75;56.75;99509.31;1732968;82;25702;-69
2022/03/29 09:44:02;;;;;;;56.02;29.50;;;;;;;9.68;56.83;99509.80;1730092;82;25394;-67
2022/03/29 09:46:30;;;;;;;43.23;29.85;;;;;;;9.67;57.12;99504.97;1733177;82;27335;-67
2022/03/29 09:49:03;;;;;;;43.00;28.38;;;;;;;9.80;57.11;99499.13;1733694;81;25429;-66
2022/03/29 09:51:30;;;;;;;54.33;31.37;;;;;;;9.86;56.81;99499.76;1734973;82;25575;-69
2022/03/29 09:54:01;;;;;;;44.25;29.77;;;;;;;9.89;56.93;99497.73;1734981;82;25631;-69
2022/03/29 09:56:30;;;;;;;49.85;29.63;;;;;;;9.90;56.62;99489.87;1734992;82;25552;-69
2022/03/29 09:59:14;;;;;;;48.55;30.55;;;;;;;9.88;56.32;99490.77;1735091;82;27808;-69
2022/03/29 10:01:57;;;;;;;45.52;29.00;;;;;;;9.88;56.25;99493.47;1734911;82;25478;-69
2022/03/29 10:04:29;;;;;;;48.02;30.10;;;;;;;9.87;56.36;99496.70;1734943;82;25656;-69
2022/03/29 10:06:59;;;;;;;50.45;32.30;;;;;;;9.90;56.65;99499.33;1734950;82;25739;-69
2022/03/29 10:09:37;;;;;;;50.00;31.40;;;;;;;10.01;57.00;99494.36;1734946;82;28771;-68
2022/03/29 10:12:09;;;;;;;61.37;34.15;;;;;;;10.19;56.74;99495.08;1734213;82;27847;-72
2022/03/29 10:14:40;;;;;;;58.55;34.00;;;;;;;10.41;57.04;99496.75;1734627;82;25689;-70
2022/03/29 10:17:08;;;;;;;53.85;33.18;;;;;;;10.49;56.02;99493.74;1734791;82;25732;-77
2022/03/29 10:19:37;;;;;;;54.90;32.03;;;;;;;10.42;55.85;99484.80;1734820;82;26156;-74
2022/03/29 10:22:05;;;;;;;49.38;30.25;;;;;;;10.35;55.62;99486.69;1734702;82;25639;-76
2022/03/29 10:24:33;;;;;;;44.70;30.80;;;;;;;10.28;55.41;99489.87;1734775;82;27405;-76
2022/03/29 10:27:01;;;;;;;41.23;27.77;;;;;;;10.28;55.68;99495.82;1734610;82;25561;-76
2022/03/29 10:29:30;;;;;;;41.20;26.57;;;;;;;10.19;55.08;99484.27;1734821;82;25592;-76
2022/03/29 10:32:06;;;;;;;46.73;28.42;;;;;;;10.05;55.14;99484.50;1734400;82;25772;-75
2022/03/29 10:34:40;;;;;;;39.60;25.95;;;;;;;9.99;55.70;99481.73;1734597;82;25632;-77
2022/03/29 10:37:27;;;;;;;40.30;26.30;;;;;;;9.86;55.29;99484.91;1706140;82;27408;-75
2022/03/29 10:40:05;;;;;;;38.90;25.48;;;;;;;9.80;55.60;99482.13;1732907;82;25595;-75
2022/03/29 10:42:43;;;;;;;43.20;26.05;;;;;;;9.65;55.49;99477.50;1733116;82;25466;-76
2022/03/29 10:45:27;;;;;;;39.80;26.00;;;;;;;9.62;55.83;99474.63;1734394;82;25582;-75
2022/03/29 10:48:05;;;;;;;44.95;26.93;;;;;;;9.58;55.78;99475.84;1734517;82;25551;-75
2022/03/29 10:50:57;;;;;;;40.85;26.30;;;;;;;9.47;56.20;99477.31;1734472;82;27334;-75
2022/03/29 10:53:37;;;;;;;38.80;25.35;;;;;;;9.39;56.33;99466.75;1734783;82;25568;-74
2022/03/29 10:56:20;;;;;;;38.73;25.10;;;;;;;9.27;56.58;99459.31;1734847;82;25388;-75
2022/03/29 10:59:11;;;;;;;41.58;25.85;;;;;;;9.14;56.36;99462.98;1734761;82;25683;-74
2022/03/29 11:01:43;;;;;;;41.00;25.77;;;;;;;9.07;56.65;99453.23;1734862;82;25572;-75
2022/03/29 11:04:21;;;;;;;42.25;24.12;;;;;;;9.03;56.72;99458.48;1733813;82;27329;-74
2022/03/29 11:07:11;;;;;;;37.38;24.18;;;;;;;9.03;56.93;99457.69;1734726;82;25670;-75
2022/03/29 11:09:40;;;;;;;38.97;24.13;;;;;;;9.08;57.23;99452.13;1671411;85;25443;-75
2022/03/29 11:12:27;;;;;;;35.00;23.32;;;;;;;9.16;57.35;99452.69;1671556;85;26291;-74
2022/03/29 11:14:54;;;;;;;35.65;23.47;;;;;;;9.29;57.51;99447.64;1671468;85;25556;-75
2022/03/29 11:17:29;;;;;;;37.15;24.12;;;;;;;9.37;57.31;99447.96;1671482;85;27332;-74
2022/03/29 11:19:59;;;;;;;33.95;23.50;;;;;;;9.29;57.15;99436.05;1671435;85;25655;-74
2022/03/29 11:22:36;;;;;;;43.05;23.90;;;;;;;9.32;56.87;99434.86;1671744;84;25701;-74
2022/03/29 11:25:10;;;;;;;36.95;23.07;;;;;;;9.36;56.91;99444.45;1671490;85;26175;-73
2022/03/29 11:27:38;;;;;;;36.20;20.92;;;;;;;9.30;56.78;99437.09;1671424;85;25637;-74
2022/03/29 11:30:10;;;;;;;31.87;20.52;;;;;;;9.23;55.73;99435.45;1671391;85;27302;-74
2022/03/29 11:32:45;;;;;;;30.10;19.57;;;;;;;9.15;55.37;99424.11;1671339;85;25528;-74
2022/03/29 11:35:15;;;;;;;25.10;17.35;;;;;;;9.12;55.11;99428.79;1671459;85;25596;-73
2022/03/29 11:37:45;;;;;;;;;;;;;;;9.13;55.18;99431.16;1673935;85;26180;-72
2022/03/29 11:40:15;;;;;;;26.60;16.93;;;;;;;9.14;54.68;99428.72;1671458;85;25626;-74
2022/03/29 11:42:53;;;;;;;29.65;17.07;;;;;;;9.14;54.45;99426.02;1671418;85;27420;-72